Time;durP1;ratioP1;P1;durP2;ratioP2;P2;SDS_P1;SDS_P2;PMS_P1;PMS_P2;Temp;Humidity;BMP_temperature;BMP_pressure;BME280_temperature;BME280_humidity;BME280_pressure;Samples;Min_cycle;Max_cycle;Signal;HPM_P1;HPM_P2
2021/04/29 00:01:15;;;;;;;12.00;8.75;;;18.10;30.50;;;;;;1489263;39;20047;-55
2021/04/29 00:02:36;;;;;;;9.00;7.70;;;18.10;30.70;;;;;;1491569;39;20128;-54
2021/04/29 00:03:56;;;;;;;11.70;9.10;;;18.00;30.60;;;;;;1491357;39;20054;-52
2021/04/29 00:05:21;;;;;;;10.75;8.43;;;18.00;30.60;;;;;;1489744;39;20027;-54
2021/04/29 00:06:43;;;;;;;10.00;8.18;;;18.00;30.90;;;;;;1490559;39;20031;-52
2021/04/29 00:08:04;;;;;;;13.18;8.32;;;18.00;30.70;;;;;;1491968;39;20031;-55
2021/04/29 00:09:25;;;;;;;10.93;8.27;;;18.00;31.00;;;;;;1491125;39;20245;-54
2021/04/29 00:10:46;;;;;;;9.60;7.88;;;17.90;31.00;;;;;;1489303;39;20043;-55
2021/04/29 00:12:08;;;;;;;10.05;7.90;;;17.90;30.90;;;;;;1488987;39;20392;-54
2021/04/29 00:13:29;;;;;;;13.02;8.95;;;17.90;30.90;;;;;;1490680;39;20456;-54
2021/04/29 00:14:50;;;;;;;14.05;9.10;;;17.90;31.00;;;;;;1490881;39;20032;-55
2021/04/29 00:16:11;;;;;;;11.07;8.02;;;17.80;31.00;;;;;;1491725;39;20038;-51
2021/04/29 00:17:32;;;;;;;10.23;8.43;;;17.90;31.00;;;;;;1491248;39;20032;-54
2021/04/29 00:18:53;;;;;;;11.85;9.05;;;17.80;31.10;;;;;;1491338;39;20043;-56
2021/04/29 00:20:18;;;;;;;11.10;8.93;;;17.80;31.30;;;;;;1491377;39;20023;-53
2021/04/29 00:21:39;;;;;;;14.90;8.80;;;17.80;31.30;;;;;;1490280;39;20461;-55
2021/04/29 00:23:00;;;;;;;12.05;8.52;;;17.80;31.30;;;;;;1491159;39;20062;-55
2021/04/29 00:24:21;;;;;;;12.88;8.52;;;17.80;31.30;;;;;;1491173;39;20027;-54
2021/04/29 00:25:42;;;;;;;9.40;7.70;;;17.80;31.50;;;;;;1490823;39;20027;-55
2021/04/29 00:27:03;;;;;;;10.77;8.52;;;17.80;31.60;;;;;;1490675;39;20071;-53
2021/04/29 00:28:24;;;;;;;11.73;8.20;;;17.80;31.70;;;;;;1490825;39;20035;-51
2021/04/29 00:29:45;;;;;;;12.23;7.97;;;17.80;31.90;;;;;;1491427;39;20094;-52
2021/04/29 00:31:06;;;;;;;9.95;7.88;;;17.70;31.90;;;;;;1491182;39;20058;-54
2021/04/29 00:32:27;;;;;;;11.32;8.50;;;17.70;32.10;;;;;;1489331;39;20043;-56
2021/04/29 00:33:48;;;;;;;11.85;7.43;;;17.70;32.30;;;;;;1491010;39;20016;-52
2021/04/29 00:35:10;;;;;;;11.88;7.55;;;17.70;32.50;;;;;;1491373;39;20039;-54
2021/04/29 00:36:31;;;;;;;8.85;7.05;;;17.70;32.60;;;;;;1489808;39;20089;-53
2021/04/29 00:37:52;;;;;;;11.25;7.43;;;17.70;32.70;;;;;;1491415;39;20034;-54
2021/04/29 00:39:13;;;;;;;10.80;7.50;;;17.60;32.90;;;;;;1491238;39;20280;-54
2021/04/29 00:40:34;;;;;;;8.43;6.97;;;17.70;33.10;;;;;;1491347;39;20028;-56
2021/04/29 00:41:55;;;;;;;11.70;7.30;;;17.60;33.20;;;;;;1489289;39;20038;-54
2021/04/29 00:43:15;;;;;;;8.10;6.65;;;17.60;33.30;;;;;;1490620;39;20038;-52
2021/04/29 00:44:36;;;;;;;7.85;6.70;;;17.60;33.50;;;;;;1489840;39;20038;-56
2021/04/29 00:45:58;;;;;;;8.80;6.25;;;17.60;33.50;;;;;;1490087;39;20028;-55
2021/04/29 00:47:19;;;;;;;8.55;6.03;;;17.60;33.70;;;;;;1491446;39;20077;-55
2021/04/29 00:48:42;;;;;;;7.45;6.10;;;17.60;33.80;;;;;;1484615;40;20285;-54
2021/04/29 00:50:05;;;;;;;8.23;6.13;;;17.50;34.00;;;;;;1489905;39;20036;-53
2021/04/29 00:51:26;;;;;;;8.95;5.97;;;17.50;34.10;;;;;;1490495;39;20028;-54
2021/04/29 00:52:47;;;;;;;10.10;5.97;;;17.50;34.10;;;;;;1490840;39;20116;-55
2021/04/29 00:54:08;;;;;;;8.40;5.65;;;17.50;34.20;;;;;;1490258;39;20036;-55
2021/04/29 00:55:29;;;;;;;6.80;5.93;;;17.50;34.40;;;;;;1489813;39;20035;-54
2021/04/29 00:56:50;;;;;;;7.25;5.10;;;17.50;34.60;;;;;;1490389;39;20031;-54
2021/04/29 00:58:11;;;;;;;7.53;5.55;;;17.50;34.60;;;;;;1490921;39;20032;-56
2021/04/29 00:59:32;;;;;;;6.18;5.03;;;17.50;34.70;;;;;;1488991;39;20016;-55
2021/04/29 01:00:53;;;;;;;12.57;5.10;;;17.50;35.00;;;;;;1491020;39;20042;-55
2021/04/29 01:02:15;;;;;;;7.35;5.25;;;17.40;35.00;;;;;;1491454;39;20019;-54
2021/04/29 01:03:51;;;;;;;9.02;5.22;;;17.50;35.10;;;;;;1490195;39;20028;-54
2021/04/29 01:05:16;;;;;;;6.38;4.82;;;17.40;35.50;;;;;;1491544;39;20035;-52
2021/04/29 01:06:46;;;;;;;8.35;4.90;;;17.40;35.10;;;;;;1489263;39;20020;-54
2021/04/29 01:08:15;;;;;;;6.43;4.85;;;17.40;35.40;;;;;;1489429;39;20068;-53
2021/04/29 01:09:54;;;;;;;5.70;4.97;;;17.40;35.40;;;;;;1491141;39;20031;-53
2021/04/29 01:11:21;;;;;;;7.18;4.82;;;17.40;35.40;;;;;;1490896;39;20131;-52
2021/04/29 01:13:08;;;;;;;7.32;4.82;;;17.40;35.50;;;;;;1488928;39;20027;-51
2021/04/29 01:14:30;;;;;;;4.95;4.45;;;17.30;35.60;;;;;;1491534;39;20047;-54
2021/04/29 01:15:52;;;;;;;6.32;4.55;;;17.30;35.30;;;;;;1491189;39;20039;-50
2021/04/29 01:17:13;;;;;;;7.03;5.00;;;17.40;35.40;;;;;;1491562;39;20031;-52
2021/04/29 01:18:35;;;;;;;6.13;5.03;;;17.30;35.50;;;;;;1490773;39;20056;-50
2021/04/29 01:20:16;;;;;;;6.38;4.97;;;17.30;35.80;;;;;;1490362;39;20034;-50
2021/04/29 01:21:39;;;;;;;6.07;4.78;;;17.20;36.40;;;;;;1489363;39;20064;-51
2021/04/29 01:23:11;;;;;;;7.07;4.35;;;17.20;36.00;;;;;;1490299;39;20035;-53
2021/04/29 01:24:41;;;;;;;8.80;4.85;;;17.20;36.40;;;;;;1491125;39;20027;-52
2021/04/29 01:26:18;;;;;;;5.75;4.63;;;17.20;36.40;;;;;;1490167;39;20532;-52
2021/04/29 01:27:39;;;;;;;7.75;4.78;;;17.20;37.70;;;;;;1489396;39;20023;-49
2021/04/29 01:29:10;;;;;;;6.47;4.78;;;17.10;36.40;;;;;;1490765;39;20034;-55
2021/04/29 01:30:32;;;;;;;6.30;4.95;;;17.10;36.60;;;;;;1491106;39;20032;-54
2021/04/29 01:31:55;;;;;;;7.88;5.18;;;17.10;36.70;;;;;;1486245;40;20028;-53
2021/04/29 01:33:16;;;;;;;7.60;5.10;;;17.00;36.80;;;;;;1489587;39;20046;-53
2021/04/29 01:34:39;;;;;;;6.63;5.13;;;17.00;37.00;;;;;;1489194;39;20027;-53
2021/04/29 01:36:01;;;;;;;8.70;5.32;;;17.00;37.20;;;;;;1490722;39;20031;-53
2021/04/29 01:37:23;;;;;;;6.22;5.60;;;17.00;37.50;;;;;;1491020;39;20039;-55
2021/04/29 01:38:44;;;;;;;10.82;5.57;;;17.00;37.60;;;;;;1491086;39;20032;-55
2021/04/29 01:40:08;;;;;;;6.60;5.15;;;16.90;37.80;;;;;;1491604;39;20043;-52
2021/04/29 01:41:29;;;;;;;6.65;5.03;;;16.90;37.80;;;;;;1486586;40;20221;-55
2021/04/29 01:42:50;;;;;;;6.20;4.93;;;16.90;37.80;;;;;;1489579;39;20252;-52
2021/04/29 01:44:13;;;;;;;7.50;5.53;;;16.80;38.00;;;;;;1491256;39;20028;-55
2021/04/29 01:45:35;;;;;;;9.82;5.10;;;16.80;38.20;;;;;;1490219;39;20053;-53
2021/04/29 01:46:59;;;;;;;6.65;5.35;;;16.90;38.30;;;;;;1490722;39;20404;-52
2021/04/29 01:48:21;;;;;;;8.82;5.60;;;16.80;38.40;;;;;;1487692;39;20428;-53
2021/04/29 01:49:42;;;;;;;10.98;5.82;;;16.80;38.40;;;;;;1490950;39;20042;-54
2021/04/29 01:51:04;;;;;;;7.70;5.97;;;16.80;38.50;;;;;;1490258;39;20042;-56
2021/04/29 01:52:25;;;;;;;7.25;5.60;;;16.80;38.70;;;;;;1489226;39;20029;-54
2021/04/29 01:53:47;;;;;;;6.70;5.45;;;16.70;38.80;;;;;;1490922;39;20031;-53
2021/04/29 01:55:09;;;;;;;7.38;5.63;;;16.80;39.00;;;;;;1486715;40;20032;-54
2021/04/29 01:56:30;;;;;;;6.25;5.18;;;16.70;39.10;;;;;;1488070;39;20076;-55
2021/04/29 01:57:54;;;;;;;6.78;5.22;;;16.70;39.30;;;;;;1489875;39;20038;-55
2021/04/29 01:59:16;;;;;;;6.95;6.07;;;16.70;39.50;;;;;;1490247;39;20039;-54
2021/04/29 02:00:37;;;;;;;10.32;5.63;;;16.70;39.30;;;;;;1490931;39;20352;-54
2021/04/29 02:01:58;;;;;;;8.20;6.18;;;16.70;39.50;;;;;;1489509;39;20035;-55
2021/04/29 02:03:22;;;;;;;6.78;6.07;;;16.70;39.60;;;;;;1490328;39;20023;-54
2021/04/29 02:04:43;;;;;;;7.18;6.35;;;16.70;40.00;;;;;;1490979;39;20035;-50
2021/04/29 02:06:04;;;;;;;9.70;6.00;;;16.70;40.00;;;;;;1490851;39;20039;-54
2021/04/29 02:07:24;;;;;;;7.43;6.32;;;16.70;40.10;;;;;;1489702;39;20065;-54
2021/04/29 02:08:46;;;;;;;8.30;6.05;;;16.70;40.00;;;;;;1490974;39;20483;-53
2021/04/29 02:10:07;;;;;;;7.47;6.03;;;16.60;40.00;;;;;;1489408;39;20036;-54
2021/04/29 02:11:35;;;;;;;7.30;5.18;;;16.70;40.30;;;;;;1489868;39;20035;-52
2021/04/29 02:12:57;;;;;;;9.27;6.78;;;16.60;40.90;;;;;;1488713;39;20032;-54
2021/04/29 02:14:33;;;;;;;8.80;6.93;;;16.60;40.70;;;;;;1491419;39;20024;-51
2021/04/29 02:16:01;;;;;;;8.82;7.00;;;16.60;41.60;;;;;;1490919;39;20425;-53
2021/04/29 02:17:48;;;;;;;9.77;6.85;;;16.60;41.10;;;;;;1487663;39;20040;-53
2021/04/29 02:19:10;;;;;;;9.88;6.30;;;16.60;41.90;;;;;;1490821;39;20128;-54
2021/04/29 02:20:33;;;;;;;7.80;6.28;;;16.60;41.00;;;;;;1491107;39;20438;-53
2021/04/29 02:21:54;;;;;;;8.90;6.15;;;16.50;40.90;;;;;;1490752;39;20030;-55
2021/04/29 02:23:21;;;;;;;7.80;6.00;;;16.50;41.00;;;;;;1490722;39;20045;-52
2021/04/29 02:24:45;;;;;;;9.48;6.50;;;16.50;41.30;;;;;;1491280;39;20024;-54
2021/04/29 02:26:06;;;;;;;7.18;6.45;;;16.50;41.60;;;;;;1490250;39;20198;-54
2021/04/29 02:27:27;;;;;;;8.73;6.88;;;16.50;41.20;;;;;;1490519;39;20020;-54
2021/04/29 02:28:49;;;;;;;8.30;6.78;;;16.50;41.50;;;;;;1490164;39;20044;-55
2021/04/29 02:30:12;;;;;;;8.43;6.72;;;16.40;41.80;;;;;;1488434;39;20117;-54
2021/04/29 02:31:36;;;;;;;8.48;6.30;;;16.40;41.80;;;;;;1487511;39;20040;-54
2021/04/29 02:32:57;;;;;;;9.30;7.20;;;16.40;42.30;;;;;;1489743;39;20035;-54
2021/04/29 02:34:19;;;;;;;9.95;7.93;;;16.40;41.70;;;;;;1491364;39;20039;-52
2021/04/29 02:35:40;;;;;;;10.27;7.32;;;16.40;41.90;;;;;;1490680;39;20039;-51
2021/04/29 02:37:01;;;;;;;8.23;7.20;;;16.40;41.90;;;;;;1490925;39;20337;-51
2021/04/29 02:38:23;;;;;;;10.40;8.27;;;16.40;41.80;;;;;;1490855;39;20035;-56
2021/04/29 02:39:44;;;;;;;10.95;8.13;;;16.40;42.20;;;;;;1490506;39;20121;-50
2021/04/29 02:41:06;;;;;;;28.30;9.23;;;16.40;42.30;;;;;;1490584;39;20152;-51
2021/04/29 02:42:28;;;;;;;9.93;7.80;;;16.40;42.70;;;;;;1489313;39;20282;-54
2021/04/29 02:43:49;;;;;;;9.10;8.13;;;16.40;42.30;;;;;;1488960;39;20046;-53
2021/04/29 02:45:12;;;;;;;10.98;8.32;;;16.30;42.20;;;;;;1490435;39;20046;-50
2021/04/29 02:46:33;;;;;;;11.82;8.27;;;16.30;42.60;;;;;;1490171;39;20039;-51
2021/04/29 02:47:55;;;;;;;10.65;8.20;;;16.30;42.30;;;;;;1491134;39;20035;-50
2021/04/29 02:49:16;;;;;;;11.63;8.32;;;16.30;42.20;;;;;;1489813;39;20128;-50
2021/04/29 02:50:43;;;;;;;11.02;9.20;;;16.30;42.50;;;;;;1490991;39;20116;-52
2021/04/29 02:52:04;;;;;;;12.48;9.00;;;16.30;42.40;;;;;;1490705;39;20057;-50
2021/04/29 02:53:25;;;;;;;12.43;9.27;;;16.30;42.30;;;;;;1486703;40;20032;-54
2021/04/29 02:54:46;;;;;;;11.30;9.07;;;16.30;42.50;;;;;;1489956;39;20493;-54
2021/04/29 02:56:07;;;;;;;11.68;9.45;;;16.30;42.30;;;;;;1490617;39;20031;-50
2021/04/29 02:57:28;;;;;;;13.10;10.43;;;16.30;42.40;;;;;;1490128;39;20048;-52
2021/04/29 02:58:50;;;;;;;15.15;9.98;;;16.30;42.50;;;;;;1490655;39;20027;-54
2021/04/29 03:00:14;;;;;;;12.45;9.93;;;16.20;42.40;;;;;;1490930;39;20044;-50
2021/04/29 03:01:36;;;;;;;12.80;8.85;;;16.30;42.40;;;;;;1485534;40;20035;-51
2021/04/29 03:02:57;;;;;;;12.27;10.10;;;16.20;42.50;;;;;;1489181;39;20057;-53
2021/04/29 03:04:18;;;;;;;14.88;10.82;;;16.20;42.80;;;;;;1488901;39;20056;-52
2021/04/29 03:05:39;;;;;;;12.30;10.05;;;16.20;42.60;;;;;;1489402;39;20035;-50
2021/04/29 03:07:00;;;;;;;11.98;9.85;;;16.20;42.50;;;;;;1488922;39;20129;-50
2021/04/29 03:08:21;;;;;;;11.95;10.13;;;16.20;42.50;;;;;;1489506;39;20027;-52
2021/04/29 03:09:42;;;;;;;11.68;10.13;;;16.20;42.50;;;;;;1490835;39;20110;-52
2021/04/29 03:11:04;;;;;;;15.15;10.02;;;16.20;42.50;;;;;;1490490;39;20120;-54
2021/04/29 03:12:26;;;;;;;13.20;9.95;;;16.20;43.00;;;;;;1490795;39;20292;-54
2021/04/29 03:13:47;;;;;;;12.70;10.52;;;16.20;42.40;;;;;;1490985;39;20094;-49
2021/04/29 03:15:09;;;;;;;13.88;11.07;;;16.20;42.70;;;;;;1490715;39;20090;-53
2021/04/29 03:16:30;;;;;;;14.20;10.02;;;16.20;42.90;;;;;;1490398;39;20201;-53
2021/04/29 03:17:51;;;;;;;13.13;10.35;;;16.20;42.70;;;;;;1489885;39;20051;-55
2021/04/29 03:19:12;;;;;;;14.65;10.63;;;16.20;42.60;;;;;;1491442;39;20035;-55
2021/04/29 03:20:33;;;;;;;11.13;9.18;;;16.20;42.70;;;;;;1490871;39;20441;-51
2021/04/29 03:21:54;;;;;;;14.05;10.82;;;16.20;42.80;;;;;;1488805;39;20016;-52
2021/04/29 03:23:15;;;;;;;13.15;10.32;;;16.20;42.80;;;;;;1490341;39;20044;-51
2021/04/29 03:24:36;;;;;;;16.23;10.90;;;16.10;42.90;;;;;;1489628;39;20035;-53
2021/04/29 03:25:57;;;;;;;12.32;10.07;;;16.10;42.90;;;;;;1488389;39;20044;-53
2021/04/29 03:27:18;;;;;;;12.98;10.48;;;16.10;43.10;;;;;;1489471;39;20050;-55
2021/04/29 03:28:39;;;;;;;11.57;10.25;;;16.10;42.90;;;;;;1490122;39;21384;-53
2021/04/29 03:30:00;;;;;;;12.88;10.98;;;16.10;42.90;;;;;;1490754;39;20131;-51
2021/04/29 03:31:21;;;;;;;13.23;10.55;;;16.10;42.90;;;;;;1489039;39;20136;-51
2021/04/29 03:32:42;;;;;;;14.95;10.80;;;16.10;43.10;;;;;;1489146;39;20032;-53
2021/04/29 03:34:03;;;;;;;12.25;10.00;;;16.00;43.20;;;;;;1490514;39;20136;-52
2021/04/29 03:35:24;;;;;;;15.15;11.00;;;16.00;43.20;;;;;;1491104;39;20024;-52
2021/04/29 03:36:45;;;;;;;15.30;10.63;;;16.00;43.10;;;;;;1490596;39;20040;-53
2021/04/29 03:38:07;;;;;;;12.88;11.52;;;16.00;43.20;;;;;;1489303;39;20075;-54
2021/04/29 03:39:27;;;;;;;14.65;11.52;;;16.00;43.30;;;;;;1486071;40;20133;-54
2021/04/29 03:40:48;;;;;;;13.98;10.70;;;16.00;43.30;;;;;;1489057;39;20032;-53
2021/04/29 03:42:10;;;;;;;14.25;11.48;;;16.00;43.40;;;;;;1490959;39;20041;-53
2021/04/29 03:43:31;;;;;;;13.60;10.98;;;16.00;43.40;;;;;;1491240;39;20035;-51
2021/04/29 03:44:52;;;;;;;13.98;10.80;;;16.00;43.40;;;;;;1490656;39;20039;-53
2021/04/29 03:46:13;;;;;;;13.70;10.45;;;15.90;43.40;;;;;;1489235;39;20114;-53
2021/04/29 03:47:34;;;;;;;15.18;10.65;;;16.00;43.50;;;;;;1491129;39;20462;-49
2021/04/29 03:48:55;;;;;;;13.55;11.15;;;15.90;43.40;;;;;;1490655;39;20031;-53
2021/04/29 03:50:16;;;;;;;14.10;10.73;;;15.90;43.50;;;;;;1490809;39;20035;-52
2021/04/29 03:51:37;;;;;;;12.98;10.15;;;16.00;43.60;;;;;;1489179;39;20050;-53
2021/04/29 03:52:58;;;;;;;12.93;10.50;;;15.90;43.60;;;;;;1489580;39;20031;-52
2021/04/29 03:54:19;;;;;;;14.45;10.75;;;15.90;43.60;;;;;;1488719;39;20028;-55
2021/04/29 03:55:39;;;;;;;13.43;10.57;;;15.90;43.70;;;;;;1490539;39;20032;-53
2021/04/29 03:57:00;;;;;;;16.40;11.32;;;15.90;43.80;;;;;;1490381;39;20024;-52
2021/04/29 03:58:21;;;;;;;14.02;11.00;;;15.80;43.80;;;;;;1491115;39;20039;-52
2021/04/29 03:59:42;;;;;;;14.52;11.18;;;15.80;43.80;;;;;;1490500;39;20030;-54
2021/04/29 04:01:03;;;;;;;16.48;11.32;;;15.80;43.90;;;;;;1490279;39;20059;-53
2021/04/29 04:02:24;;;;;;;17.23;11.73;;;15.90;43.80;;;;;;1490178;39;20031;-51
2021/04/29 04:03:45;;;;;;;13.93;11.57;;;15.80;43.80;;;;;;1489957;39;20072;-53
2021/04/29 04:05:07;;;;;;;15.27;11.68;;;15.80;43.80;;;;;;1488163;39;20031;-53
2021/04/29 04:06:28;;;;;;;15.48;11.80;;;15.70;43.80;;;;;;1489888;39;20261;-51
2021/04/29 04:07:48;;;;;;;14.70;12.10;;;15.70;43.80;;;;;;1488903;39;20035;-53
2021/04/29 04:09:09;;;;;;;15.15;11.25;;;15.70;43.80;;;;;;1485850;40;20036;-54
2021/04/29 04:10:30;;;;;;;15.75;12.30;;;15.70;43.90;;;;;;1489514;39;20052;-50
2021/04/29 04:11:51;;;;;;;16.40;12.90;;;15.70;43.90;;;;;;1489889;39;20052;-52
2021/04/29 04:13:20;;;;;;;14.18;11.57;;;15.60;44.00;;;;;;1489903;39;20337;-50
2021/04/29 04:14:41;;;;;;;16.63;12.25;;;15.60;44.20;;;;;;1490768;39;20031;-52
2021/04/29 04:16:02;;;;;;;14.68;11.52;;;15.60;43.90;;;;;;1489865;39;20169;-52
2021/04/29 04:17:23;;;;;;;14.10;11.85;;;15.60;44.00;;;;;;1489698;39;20044;-55
2021/04/29 04:18:44;;;;;;;14.15;11.45;;;15.60;44.30;;;;;;1490236;39;20121;-54
2021/04/29 04:20:06;;;;;;;14.02;12.20;;;15.60;44.10;;;;;;1491387;39;20050;-51
2021/04/29 04:21:27;;;;;;;14.93;11.80;;;15.60;44.30;;;;;;1489158;39;20323;-52
2021/04/29 04:22:49;;;;;;;14.35;11.80;;;15.60;44.20;;;;;;1489235;39;20276;-54
2021/04/29 04:24:10;;;;;;;14.55;12.35;;;15.50;44.20;;;;;;1491250;39;20032;-53
2021/04/29 04:25:31;;;;;;;13.40;11.07;;;15.50;44.20;;;;;;1491640;39;20031;-50
2021/04/29 04:26:52;;;;;;;13.65;10.93;;;15.50;44.20;;;;;;1490847;39;20696;-52
2021/04/29 04:28:13;;;;;;;13.55;11.23;;;15.50;44.20;;;;;;1490900;39;20019;-50
2021/04/29 04:29:34;;;;;;;15.38;11.55;;;15.50;44.20;;;;;;1491456;39;20036;-53
2021/04/29 04:30:56;;;;;;;17.88;11.32;;;15.50;44.40;;;;;;1490296;39;20276;-52
2021/04/29 04:32:17;;;;;;;13.57;10.65;;;15.50;44.40;;;;;;1489216;39;20034;-53
2021/04/29 04:33:37;;;;;;;15.07;11.77;;;15.50;44.30;;;;;;1490781;39;20046;-52
2021/04/29 04:35:01;;;;;;;16.42;12.93;;;15.40;44.40;;;;;;1491301;39;20039;-50
2021/04/29 04:36:22;;;;;;;16.73;11.80;;;15.40;44.60;;;;;;1490545;39;20268;-53
2021/04/29 04:37:44;;;;;;;15.75;11.65;;;15.40;44.50;;;;;;1488921;39;20044;-53
2021/04/29 04:39:05;;;;;;;15.32;11.82;;;15.40;44.50;;;;;;1490951;39;20036;-52
2021/04/29 04:40:26;;;;;;;15.60;12.77;;;15.40;44.50;;;;;;1491049;39;20039;-55
2021/04/29 04:41:47;;;;;;;15.77;12.18;;;15.40;44.60;;;;;;1490397;39;20141;-54
2021/04/29 04:43:08;;;;;;;12.98;11.52;;;15.40;44.60;;;;;;1490938;39;20035;-53
2021/04/29 04:44:29;;;;;;;15.77;12.93;;;15.30;44.50;;;;;;1489830;39;20032;-52
2021/04/29 04:45:50;;;;;;;14.80;12.32;;;15.30;44.70;;;;;;1490238;39;20075;-55
2021/04/29 04:47:11;;;;;;;15.43;13.00;;;15.30;44.60;;;;;;1490379;39;20032;-53
2021/04/29 04:48:32;;;;;;;17.52;13.00;;;15.30;44.70;;;;;;1488928;39;20518;-52
2021/04/29 04:49:53;;;;;;;17.80;13.45;;;15.30;44.70;;;;;;1485797;40;20031;-53
2021/04/29 04:51:13;;;;;;;16.75;12.77;;;15.20;45.10;;;;;;1488846;39;20116;-56
2021/04/29 04:52:34;;;;;;;18.08;13.23;;;15.20;44.80;;;;;;1486557;40;20040;-53
2021/04/29 04:53:55;;;;;;;19.48;13.32;;;15.20;44.90;;;;;;1488635;39;20047;-50
2021/04/29 04:55:16;;;;;;;16.20;13.23;;;15.10;44.70;;;;;;1490575;39;20016;-53
2021/04/29 04:56:37;;;;;;;17.25;13.30;;;15.10;44.80;;;;;;1490185;39;20424;-53
2021/04/29 04:57:58;;;;;;;16.17;12.70;;;15.10;44.80;;;;;;1490342;39;20061;-53
2021/04/29 04:59:19;;;;;;;16.88;13.48;;;15.10;44.90;;;;;;1491464;39;20024;-52
2021/04/29 05:00:40;;;;;;;18.88;13.52;;;15.10;44.90;;;;;;1489743;39;20510;-54
2021/04/29 05:02:02;;;;;;;16.85;13.38;;;15.10;45.00;;;;;;1490534;39;20046;-54
2021/04/29 05:03:23;;;;;;;21.08;13.77;;;15.10;45.20;;;;;;1490136;39;20036;-51
2021/04/29 05:04:44;;;;;;;17.58;13.45;;;15.00;45.00;;;;;;1491166;39;20032;-51
2021/04/29 05:06:05;;;;;;;19.13;13.27;;;15.10;45.00;;;;;;1491129;39;20751;-52
2021/04/29 05:07:26;;;;;;;18.02;12.98;;;15.10;45.20;;;;;;1490139;39;20035;-51
2021/04/29 05:08:47;;;;;;;18.60;14.30;;;15.00;45.10;;;;;;1490535;39;20032;-51
2021/04/29 05:10:08;;;;;;;18.92;14.10;;;15.00;45.20;;;;;;1490146;39;20483;-51
2021/04/29 05:11:29;;;;;;;18.15;13.60;;;15.00;45.10;;;;;;1491123;39;20024;-52
2021/04/29 05:12:50;;;;;;;19.48;13.65;;;15.00;45.10;;;;;;1489524;39;20028;-53
2021/04/29 05:14:11;;;;;;;18.63;13.73;;;15.00;45.10;;;;;;1491244;39;20379;-54
2021/04/29 05:15:33;;;;;;;17.63;13.48;;;15.00;45.10;;;;;;1489574;39;20076;-53
2021/04/29 05:16:55;;;;;;;16.35;13.07;;;14.90;45.20;;;;;;1489358;39;20040;-52
2021/04/29 05:18:16;;;;;;;16.38;13.05;;;14.90;45.10;;;;;;1491335;39;20068;-54
2021/04/29 05:19:37;;;;;;;19.25;14.93;;;14.90;45.10;;;;;;1491224;39;20031;-51
2021/04/29 05:20:58;;;;;;;18.67;14.25;;;14.90;45.10;;;;;;1491989;39;20269;-51
2021/04/29 05:22:18;;;;;;;18.00;14.68;;;14.90;45.00;;;;;;1489449;39;20039;-50
2021/04/29 05:23:39;;;;;;;18.45;15.10;;;14.90;45.30;;;;;;1490992;39;20036;-51
2021/04/29 05:25:00;;;;;;;21.90;15.20;;;14.80;45.50;;;;;;1490942;39;20128;-50
2021/04/29 05:26:21;;;;;;;19.45;14.75;;;14.80;45.40;;;;;;1490743;39;20285;-49
2021/04/29 05:27:42;;;;;;;17.00;13.38;;;14.80;45.20;;;;;;1490475;39;20325;-50
2021/04/29 05:29:03;;;;;;;19.73;14.23;;;14.80;45.20;;;;;;1490844;39;20268;-50
2021/04/29 05:30:24;;;;;;;18.77;14.18;;;14.80;45.20;;;;;;1490407;39;20028;-51
2021/04/29 05:31:45;;;;;;;21.60;15.13;;;14.70;45.30;;;;;;1489784;39;20044;-53
2021/04/29 05:33:06;;;;;;;18.13;14.18;;;14.70;45.30;;;;;;1490625;39;20042;-54
2021/04/29 05:34:27;;;;;;;17.33;13.68;;;14.70;45.30;;;;;;1490239;39;20051;-52
2021/04/29 05:35:48;;;;;;;22.75;15.13;;;14.70;45.40;;;;;;1486687;40;20420;-49
2021/04/29 05:37:08;;;;;;;18.27;13.98;;;14.60;45.40;;;;;;1489775;39;20075;-53
2021/04/29 05:38:30;;;;;;;20.08;14.30;;;14.60;45.30;;;;;;1489613;39;20056;-53
2021/04/29 05:39:52;;;;;;;19.25;14.25;;;14.60;45.40;;;;;;1491210;39;20047;-49
2021/04/29 05:41:13;;;;;;;17.77;13.85;;;14.60;45.50;;;;;;1490656;39;20039;-51
2021/04/29 05:42:34;;;;;;;17.02;14.13;;;14.60;45.50;;;;;;1490205;39;20264;-53
2021/04/29 05:43:55;;;;;;;17.95;13.65;;;14.60;46.00;;;;;;1490617;39;20024;-51
2021/04/29 05:45:16;;;;;;;17.88;14.07;;;14.60;45.40;;;;;;1491047;39;20032;-51
2021/04/29 05:46:37;;;;;;;16.63;13.10;;;14.60;45.30;;;;;;1490785;39;20380;-54
2021/04/29 05:47:58;;;;;;;19.13;13.95;;;14.60;45.30;;;;;;1491118;39;20066;-52
2021/04/29 05:49:19;;;;;;;18.15;13.45;;;14.60;45.50;;;;;;1488186;39;20055;-51
2021/04/29 05:50:40;;;;;;;19.45;13.95;;;14.60;45.30;;;;;;1490884;39;20355;-53
2021/04/29 05:52:01;;;;;;;17.58;14.23;;;14.60;45.20;;;;;;1489749;39;20039;-51
2021/04/29 05:53:22;;;;;;;17.33;14.30;;;14.60;45.20;;;;;;1488993;39;20027;-53
2021/04/29 05:54:43;;;;;;;17.67;13.80;;;14.60;45.10;;;;;;1489588;39;20039;-50
2021/04/29 05:56:04;;;;;;;18.63;13.85;;;14.60;45.00;;;;;;1491200;39;20069;-53
2021/04/29 05:57:25;;;;;;;19.17;13.63;;;14.60;45.00;;;;;;1490943;39;20036;-53
2021/04/29 05:58:46;;;;;;;18.20;13.98;;;14.60;45.00;;;;;;1490737;39;20024;-52
2021/04/29 06:00:08;;;;;;;20.35;14.13;;;14.60;45.00;;;;;;1489065;39;20032;-50
2021/04/29 06:01:29;;;;;;;16.80;13.77;;;14.60;44.90;;;;;;1490242;39;20035;-53
2021/04/29 06:02:50;;;;;;;16.48;13.05;;;14.60;44.80;;;;;;1490967;39;20027;-50
2021/04/29 06:04:11;;;;;;;17.70;13.10;;;14.60;44.80;;;;;;1490461;39;20046;-49
2021/04/29 06:05:32;;;;;;;19.30;13.05;;;14.60;44.80;;;;;;1488924;39;20371;-50
2021/04/29 06:06:53;;;;;;;15.68;12.43;;;14.60;44.80;;;;;;1488954;39;20238;-51
2021/04/29 06:08:13;;;;;;;15.35;12.43;;;14.60;44.70;;;;;;1490849;39;20023;-51
2021/04/29 06:09:34;;;;;;;17.88;13.73;;;14.60;44.60;;;;;;1491843;39;20035;-54
2021/04/29 06:10:55;;;;;;;18.67;13.73;;;14.60;45.10;;;;;;1491384;39;20050;-53
2021/04/29 06:12:16;;;;;;;17.85;12.90;;;14.60;44.50;;;;;;1489215;39;20329;-56
2021/04/29 06:13:39;;;;;;;14.63;12.75;;;14.60;44.40;;;;;;1490231;39;20121;-51
2021/04/29 06:15:00;;;;;;;15.13;12.38;;;14.60;44.40;;;;;;1491247;39;20259;-53
2021/04/29 06:16:21;;;;;;;15.57;12.38;;;14.60;44.40;;;;;;1491309;39;20474;-51
2021/04/29 06:17:42;;;;;;;16.25;13.25;;;14.60;44.50;;;;;;1490373;39;20031;-53
2021/04/29 06:19:03;;;;;;;18.05;14.05;;;14.60;44.70;;;;;;1490847;39;20027;-53
2021/04/29 06:20:24;;;;;;;20.08;14.48;;;14.60;44.60;;;;;;1490385;39;20028;-55
2021/04/29 06:21:45;;;;;;;14.98;12.65;;;14.60;44.50;;;;;;1490780;39;20081;-54
2021/04/29 06:23:07;;;;;;;16.08;13.02;;;14.60;44.50;;;;;;1489241;39;20036;-54
2021/04/29 06:24:28;;;;;;;17.13;13.45;;;14.60;44.50;;;;;;1490365;39;20024;-50
2021/04/29 06:25:49;;;;;;;16.60;12.82;;;14.60;44.50;;;;;;1490832;39;20020;-53
2021/04/29 06:27:10;;;;;;;16.75;14.07;;;14.60;44.50;;;;;;1490720;39;20070;-50
2021/04/29 06:28:31;;;;;;;15.90;12.93;;;14.60;44.60;;;;;;1489925;39;20286;-54
2021/04/29 06:29:52;;;;;;;18.38;14.63;;;14.60;44.60;;;;;;1489487;39;20028;-51
2021/04/29 06:31:13;;;;;;;18.98;14.25;;;14.60;44.80;;;;;;1489747;39;20040;-54
2021/04/29 06:32:34;;;;;;;15.73;13.25;;;14.60;44.70;;;;;;1490932;39;20054;-53
2021/04/29 06:33:55;;;;;;;17.60;13.57;;;14.60;44.80;;;;;;1490690;39;20053;-52
2021/04/29 06:35:16;;;;;;;17.23;13.25;;;14.60;44.80;;;;;;1488888;39;20058;-53
2021/04/29 06:36:37;;;;;;;18.48;13.98;;;14.60;44.90;;;;;;1491267;39;20031;-53
2021/04/29 06:37:58;;;;;;;17.98;14.80;;;14.60;45.00;;;;;;1491241;39;20028;-53
2021/04/29 06:39:19;;;;;;;19.60;15.15;;;14.70;45.20;;;;;;1489659;39;20348;-53
2021/04/29 06:40:40;;;;;;;21.02;15.23;;;14.60;45.20;;;;;;1490051;39;20770;-53
2021/04/29 06:42:01;;;;;;;18.13;14.02;;;14.60;45.20;;;;;;1490790;39;20039;-54
2021/04/29 06:43:22;;;;;;;21.60;16.13;;;14.70;45.40;;;;;;1488797;39;20513;-55
2021/04/29 06:44:43;;;;;;;22.77;15.13;;;14.60;45.90;;;;;;1489843;39;20368;-53
2021/04/29 06:46:04;;;;;;;20.80;16.15;;;14.70;45.70;;;;;;1491172;39;20052;-51
2021/04/29 06:47:31;;;;;;;19.50;16.95;;;14.70;45.80;;;;;;1490423;39;20024;-53
2021/04/29 06:48:52;;;;;;;18.83;15.52;;;14.70;46.30;;;;;;1489302;39;20275;-53
2021/04/29 06:50:13;;;;;;;22.48;16.60;;;14.70;46.10;;;;;;1489625;39;20031;-54
2021/04/29 06:51:34;;;;;;;22.40;17.85;;;14.70;46.10;;;;;;1490163;39;20358;-54
2021/04/29 06:52:54;;;;;;;27.33;20.27;;;14.70;46.20;;;;;;1490350;39;20371;-51
2021/04/29 06:54:15;;;;;;;22.85;18.67;;;14.80;46.50;;;;;;1490057;39;20062;-55
2021/04/29 06:55:36;;;;;;;26.33;21.05;;;14.80;46.60;;;;;;1490540;39;20035;-51
2021/04/29 06:56:59;;;;;;;28.98;21.83;;;14.80;46.80;;;;;;1490669;39;20027;-50
2021/04/29 06:58:20;;;;;;;26.92;21.90;;;14.80;46.90;;;;;;1488989;39;20032;-52
2021/04/29 06:59:41;;;;;;;32.10;24.85;;;14.90;47.00;;;;;;1490340;39;20031;-52